createdAt,value
2018-09-10T00:01:17.460Z,90.40
2018-09-10T00:03:45.779Z,90.40
2018-09-10T00:06:13.927Z,90.40
2018-09-10T00:08:42.090Z,90.40
2018-09-10T00:11:10.491Z,90.30
2018-09-10T00:13:38.643Z,90.20
2018-09-10T00:16:06.899Z,90.30
2018-09-10T00:18:35.055Z,90.30
2018-09-10T00:21:03.214Z,90.20
2018-09-10T00:23:31.635Z,90.20
2018-09-10T00:26:00.435Z,90.30
2018-09-10T00:28:28.595Z,90.30
2018-09-10T00:30:56.881Z,90.30
2018-09-10T00:33:25.063Z,90.50
2018-09-10T00:35:53.231Z,90.40
2018-09-10T00:38:21.395Z,90.40
2018-09-10T00:40:49.554Z,90.40
2018-09-10T00:43:17.703Z,90.40
2018-09-10T00:45:46.019Z,90.30
2018-09-10T00:48:14.175Z,90.30
2018-09-10T00:50:42.332Z,90.30
2018-09-10T00:53:10.783Z,90.20
2018-09-10T00:55:38.966Z,90.30
2018-09-10T00:58:07.120Z,90.40
2018-09-10T01:00:35.266Z,90.40
2018-09-10T01:03:03.435Z,90.30
2018-09-10T01:05:31.898Z,90.40
2018-09-10T01:08:00.369Z,90.50
2018-09-10T01:10:28.539Z,90.60
2018-09-10T01:12:56.703Z,90.60
2018-09-10T01:15:24.862Z,90.40
2018-09-10T01:17:53.578Z,90.50
2018-09-10T01:20:21.737Z,90.50
2018-09-10T01:22:49.882Z,90.40
2018-09-10T01:25:18.038Z,90.40
2018-09-10T01:27:46.189Z,90.50
2018-09-10T01:30:14.598Z,90.50
2018-09-10T01:32:42.774Z,90.60
2018-09-10T01:35:10.958Z,90.60
2018-09-10T01:37:39.143Z,90.80
2018-09-10T01:40:07.351Z,90.50
2018-09-10T01:42:35.580Z,90.60
2018-09-10T01:45:04.136Z,90.40
2018-09-10T01:47:32.326Z,90.50
2018-09-10T01:50:00.522Z,90.50
2018-09-10T01:52:29.126Z,90.50
2018-09-10T01:54:57.510Z,90.50
2018-09-10T01:57:25.958Z,90.60
2018-09-10T01:59:54.430Z,90.40
2018-09-10T02:02:22.611Z,90.40
2018-09-10T02:04:50.783Z,90.50
2018-09-10T02:07:18.967Z,90.40
2018-09-10T02:09:47.154Z,90.50
2018-09-10T02:12:20.926Z,90.40
2018-09-10T02:14:49.120Z,90.40
2018-09-10T02:17:17.329Z,90.30
2018-09-10T02:19:45.501Z,90.40
2018-09-10T02:22:13.874Z,90.30
2018-09-10T02:24:42.051Z,90.40
2018-09-10T02:27:10.235Z,90.30
2018-09-10T02:29:38.414Z,90.30
2018-09-10T02:32:06.574Z,90.30
2018-09-10T02:34:34.766Z,90.30
2018-09-10T02:37:02.974Z,90.30
2018-09-10T02:39:31.122Z,90.40
2018-09-10T02:41:59.591Z,90.60
2018-09-10T02:44:27.767Z,90.60
2018-09-10T02:46:55.952Z,90.50
2018-09-10T02:49:24.139Z,90.50
2018-09-10T02:51:52.320Z,90.60
2018-09-10T02:54:20.471Z,90.50
2018-09-10T02:56:48.627Z,90.50
2018-09-10T02:59:16.774Z,90.70
2018-09-10T03:01:44.930Z,90.50
2018-09-10T03:04:13.080Z,90.40
2018-09-10T03:06:41.240Z,90.70
2018-09-10T03:09:09.856Z,90.40
2018-09-10T03:11:38.051Z,90.40
2018-09-10T03:14:06.571Z,90.40
2018-09-10T03:16:34.991Z,90.50
2018-09-10T03:19:03.135Z,90.60
2018-09-10T03:21:31.337Z,90.40
2018-09-10T03:23:59.672Z,90.40
2018-09-10T03:26:27.782Z,90.50
2018-09-10T03:28:55.938Z,90.50
2018-09-10T03:31:24.671Z,90.50
2018-09-10T03:33:52.855Z,90.40
2018-09-10T03:36:21.055Z,90.50
2018-09-10T03:38:49.226Z,90.60
2018-09-10T03:41:17.414Z,90.60
2018-09-10T03:43:45.596Z,90.40
2018-09-10T03:46:13.811Z,90.40
2018-09-10T03:48:41.995Z,90.50
2018-09-10T03:51:10.172Z,90.40
2018-09-10T03:53:38.355Z,90.40
2018-09-10T03:56:06.577Z,90.50
2018-09-10T03:58:34.788Z,90.60
2018-09-10T04:01:02.979Z,90.70
2018-09-10T04:03:31.163Z,90.70
2018-09-10T04:05:59.634Z,90.60
2018-09-10T04:08:27.871Z,90.50
2018-09-10T04:10:56.050Z,90.50
2018-09-10T04:13:24.238Z,90.50
2018-09-10T04:15:52.412Z,90.50
2018-09-10T04:18:20.603Z,90.60
2018-09-10T04:20:48.779Z,90.60
2018-09-10T04:23:16.962Z,90.70
2018-09-10T04:25:45.142Z,90.80
2018-09-10T04:28:13.614Z,90.90
2018-09-10T04:30:41.888Z,90.90
2018-09-10T04:33:10.104Z,90.90
2018-09-10T04:35:38.287Z,90.70
2018-09-10T04:38:06.479Z,90.80
2018-09-10T04:40:34.654Z,91.00
2018-09-10T04:43:02.847Z,91.10
2018-09-10T04:45:31.027Z,91.10
2018-09-10T04:47:59.210Z,90.90
2018-09-10T04:50:27.387Z,90.90
2018-09-10T04:52:55.570Z,90.80
2018-09-10T04:55:23.751Z,90.90
2018-09-10T04:57:51.939Z,90.80
2018-09-10T05:00:20.119Z,90.80
2018-09-10T05:02:48.310Z,90.90
2018-09-10T05:05:16.507Z,90.90
2018-09-10T05:07:44.728Z,90.80
2018-09-10T05:10:12.914Z,90.90
2018-09-10T05:12:41.266Z,91.20
2018-09-10T05:15:09.456Z,91.30
2018-09-10T05:17:37.658Z,91.40
2018-09-10T05:20:05.868Z,91.40
2018-09-10T05:22:34.051Z,91.40
2018-09-10T05:25:02.251Z,91.20
2018-09-10T05:27:30.746Z,91.40
2018-09-10T05:29:59.211Z,91.30
2018-09-10T05:32:27.408Z,91.30
2018-09-10T05:34:55.587Z,91.30
2018-09-10T05:37:23.779Z,91.40
2018-09-10T05:39:51.984Z,91.30
2018-09-10T05:42:20.212Z,91.50
2018-09-10T05:44:48.426Z,91.40
2018-09-10T05:47:16.613Z,91.50
2018-09-10T05:49:44.799Z,91.80
2018-09-10T05:52:13.282Z,91.80
2018-09-10T05:54:41.463Z,91.70
2018-09-10T05:57:09.643Z,91.90
2018-09-10T05:59:37.827Z,91.90
2018-09-10T06:02:05.999Z,91.80
2018-09-10T06:04:34.195Z,91.90
2018-09-10T06:07:02.634Z,92.00
2018-09-10T06:09:30.823Z,92.10
2018-09-10T06:11:58.995Z,92.00
2018-09-10T06:14:27.179Z,91.80
2018-09-10T06:16:55.370Z,91.80
2018-09-10T06:19:23.609Z,91.50
2018-09-10T06:21:51.800Z,91.40
2018-09-10T06:24:20.011Z,91.40
2018-09-10T06:26:48.182Z,91.50
2018-09-10T06:29:16.374Z,91.40
2018-09-10T06:31:44.543Z,91.30
2018-09-10T06:34:12.743Z,91.30
2018-09-10T06:36:40.886Z,91.30
2018-09-10T06:39:10.786Z,91.20
2018-09-10T06:41:39.002Z,91.00
2018-09-10T06:44:07.439Z,90.90
2018-09-10T06:46:35.622Z,90.80
2018-09-10T06:49:03.815Z,90.80
2018-09-10T06:51:31.994Z,90.70
2018-09-10T06:54:00.208Z,90.50
2018-09-10T06:56:28.420Z,90.20
2018-09-10T06:58:56.619Z,90.10
2018-09-10T07:01:24.794Z,90.20
2018-09-10T07:03:52.983Z,90.00
2018-09-10T07:06:21.186Z,89.70
2018-09-10T07:08:49.403Z,89.30
2018-09-10T07:11:17.634Z,89.50
2018-09-10T07:13:45.815Z,88.50
2018-09-10T07:16:13.986Z,88.30
2018-09-10T07:18:42.242Z,88.00
2018-09-10T07:21:10.342Z,87.30
2018-09-10T07:23:38.526Z,86.20
2018-09-10T07:26:06.703Z,86.80
2018-09-10T07:28:34.888Z,86.40
2018-09-10T07:31:03.100Z,85.30
2018-09-10T07:33:31.319Z,85.50
2018-09-10T07:35:59.502Z,84.90
2018-09-10T07:38:28.095Z,84.80
2018-09-10T07:40:56.442Z,85.00
2018-09-10T07:43:24.681Z,85.50
2018-09-10T07:45:53.128Z,84.40
2018-09-10T07:48:21.315Z,84.40
2018-09-10T07:50:49.497Z,82.10
2018-09-10T07:53:17.671Z,82.80
2018-09-10T07:55:45.880Z,82.40
2018-09-10T07:58:14.068Z,80.50
2018-09-10T08:00:42.261Z,80.20
2018-09-10T08:03:10.451Z,80.10
2018-09-10T08:05:38.838Z,79.80
2018-09-10T08:08:07.063Z,79.10
2018-09-10T08:10:35.293Z,80.40
2018-09-10T08:13:03.520Z,80.30
2018-09-10T08:15:31.710Z,79.00
2018-09-10T08:17:59.890Z,79.00
2018-09-10T08:20:28.115Z,80.10
2018-09-10T08:22:56.298Z,79.20
2018-09-10T08:25:24.482Z,78.90
2018-09-10T08:27:52.906Z,79.30
2018-09-10T08:30:21.113Z,78.10
2018-09-10T08:32:49.259Z,79.50
2018-09-10T08:35:17.407Z,78.50
2018-09-10T08:37:45.580Z,77.60
2018-09-10T08:40:13.727Z,78.50
2018-09-10T08:42:42.205Z,78.30
2018-09-10T08:45:10.312Z,77.00
2018-09-10T08:47:38.496Z,78.20
2018-09-10T08:50:07.735Z,77.00
2018-09-10T08:52:35.899Z,75.70
2018-09-10T08:55:04.311Z,74.80
2018-09-10T08:57:32.256Z,75.70
2018-09-10T09:00:00.402Z,75.30
2018-09-10T09:02:28.558Z,76.50
2018-09-10T09:04:56.707Z,78.20
2018-09-10T09:07:24.859Z,76.40
2018-09-10T09:09:53.019Z,75.10
2018-09-10T09:12:21.178Z,74.50
2018-09-10T09:14:49.327Z,76.30
2018-09-10T09:17:17.668Z,75.80
2018-09-10T09:19:45.794Z,75.00
2018-09-10T09:22:13.966Z,75.00
2018-09-10T09:24:42.143Z,72.70
2018-09-10T09:27:10.339Z,74.20
2018-09-10T09:29:38.551Z,75.10
2018-09-10T09:32:06.976Z,74.40
2018-09-10T09:35:10.637Z,74.60
2018-09-10T09:37:44.581Z,73.60
2018-09-10T09:40:18.078Z,71.90
2018-09-10T09:42:51.814Z,72.60
2018-09-10T09:45:25.503Z,73.00
2018-09-10T09:47:53.902Z,72.20
2018-09-10T09:50:22.075Z,73.00
2018-09-10T09:52:50.235Z,69.90
2018-09-10T09:55:18.427Z,71.70
2018-09-10T09:57:46.645Z,71.30
2018-09-10T10:00:19.938Z,69.50
2018-09-10T10:02:53.946Z,69.70
2018-09-10T10:05:22.090Z,68.80
2018-09-10T10:07:50.550Z,70.00
2018-09-10T10:10:19.200Z,67.80
2018-09-10T10:12:47.558Z,68.10
2018-09-10T10:15:15.705Z,68.40
2018-09-10T10:17:43.866Z,66.80
2018-09-10T10:20:12.027Z,67.00
2018-09-10T10:22:40.175Z,66.90
2018-09-10T10:25:08.327Z,67.50
2018-09-10T10:27:36.478Z,67.10
2018-09-10T10:30:04.670Z,65.70
2018-09-10T10:32:32.866Z,65.80
2018-09-10T10:35:01.032Z,63.60
2018-09-10T10:37:29.186Z,65.60
2018-09-10T10:39:57.630Z,64.30
2018-09-10T10:42:25.787Z,65.20
2018-09-10T10:44:53.942Z,64.70
2018-09-10T10:47:22.141Z,64.00
2018-09-10T10:49:50.239Z,62.90
2018-09-10T10:52:18.382Z,63.80
2018-09-10T10:54:46.538Z,63.10
2018-09-10T10:57:14.710Z,61.40
2018-09-10T10:59:42.883Z,62.20
2018-09-10T11:02:11.026Z,59.70
2018-09-10T11:04:39.194Z,59.40
2018-09-10T11:07:07.472Z,57.80
2018-09-10T11:09:35.656Z,58.20
2018-09-10T11:12:03.815Z,61.90
2018-09-10T11:14:31.958Z,60.20
2018-09-10T11:17:00.102Z,60.10
2018-09-10T11:19:28.647Z,60.60
2018-09-10T11:21:57.039Z,57.80
2018-09-10T11:24:25.202Z,58.00
2018-09-10T11:26:53.354Z,59.20
2018-09-10T11:29:21.512Z,58.70
2018-09-10T11:31:49.810Z,56.60
2018-09-10T11:34:17.987Z,56.90
2018-09-10T11:36:46.163Z,53.30
2018-09-10T11:39:14.317Z,54.30
2018-09-10T11:41:42.470Z,55.70
2018-09-10T11:44:10.694Z,54.70
2018-09-10T11:46:38.959Z,54.90
2018-09-10T11:49:07.047Z,52.00
2018-09-10T11:51:35.182Z,52.00
2018-09-10T11:54:03.334Z,50.60
2018-09-10T11:56:31.731Z,54.10
2018-09-10T11:58:59.887Z,50.90
2018-09-10T12:01:28.046Z,50.80
2018-09-10T12:03:56.226Z,49.10
2018-09-10T12:06:24.379Z,48.50
2018-09-10T12:08:52.559Z,50.50
2018-09-10T12:11:20.965Z,51.10
2018-09-10T12:13:49.562Z,51.50
2018-09-10T12:16:17.714Z,49.80
2018-09-10T12:18:46.083Z,47.80
2018-09-10T12:21:14.520Z,50.70
2018-09-10T12:23:42.798Z,50.70
2018-09-10T12:26:10.954Z,53.30
2018-09-10T12:28:39.103Z,52.80
2018-09-10T12:31:07.255Z,52.20
2018-09-10T12:33:35.442Z,51.20
2018-09-10T12:36:03.649Z,53.00
2018-09-10T12:38:31.966Z,48.10
2018-09-10T12:41:00.228Z,51.90
2018-09-10T12:43:28.503Z,47.00
2018-09-10T12:45:56.883Z,49.60
2018-09-10T12:48:25.396Z,47.50
2018-09-10T12:50:53.781Z,48.50
2018-09-10T12:53:22.093Z,49.10
2018-09-10T12:55:51.313Z,49.90
2018-09-10T12:58:19.873Z,49.20
2018-09-10T13:00:48.448Z,49.50
2018-09-10T13:03:16.833Z,48.20
2018-09-10T13:05:45.509Z,49.90
2018-09-10T13:08:14.233Z,48.80
2018-09-10T13:10:42.754Z,48.10
2018-09-10T13:13:11.862Z,45.00
2018-09-10T13:15:40.158Z,44.20
2018-09-10T13:18:08.751Z,48.50
2018-09-10T13:20:37.075Z,44.20
2018-09-10T13:23:05.654Z,46.80
2018-09-10T13:25:34.126Z,46.50
2018-09-10T13:28:02.471Z,42.80
2018-09-10T13:30:30.890Z,43.90
2018-09-10T13:32:59.210Z,50.40
2018-09-10T13:35:27.536Z,45.70
2018-09-10T13:37:56.055Z,47.90
2018-09-10T13:40:24.565Z,47.20
2018-09-10T13:42:53.540Z,45.20
2018-09-10T13:45:22.026Z,44.90
2018-09-10T13:47:50.637Z,45.90
2018-09-10T13:50:19.027Z,45.30
2018-09-10T13:52:47.989Z,43.60
2018-09-10T13:55:16.322Z,45.00
2018-09-10T13:57:44.711Z,45.20
2018-09-10T14:00:13.043Z,42.00
2018-09-10T14:02:41.483Z,40.40
2018-09-10T14:05:09.886Z,41.50
2018-09-10T14:07:38.281Z,42.70
2018-09-10T14:10:06.554Z,45.30
2018-09-10T14:12:34.838Z,46.20
2018-09-10T14:15:03.198Z,47.80
2018-09-10T14:17:31.892Z,50.30
2018-09-10T14:20:00.344Z,46.40
2018-09-10T14:22:28.648Z,44.20
2018-09-10T14:24:57.069Z,41.60
2018-09-10T14:27:25.907Z,40.90
2018-09-10T14:29:54.197Z,41.10
2018-09-10T14:32:22.663Z,41.00
2018-09-10T14:34:51.485Z,45.20
2018-09-10T14:37:19.691Z,42.30
2018-09-10T14:39:47.915Z,41.30
2018-09-10T14:42:16.094Z,41.00
2018-09-10T14:44:44.270Z,42.80
2018-09-10T14:47:12.786Z,42.60
2018-09-10T14:49:41.247Z,41.30
2018-09-10T14:52:09.699Z,41.70
2018-09-10T14:54:37.870Z,42.30
2018-09-10T14:57:06.048Z,41.90
2018-09-10T14:59:34.350Z,45.20
2018-09-10T15:02:02.546Z,44.20
2018-09-10T15:04:30.761Z,42.40
2018-09-10T15:06:59.098Z,41.90
2018-09-10T15:09:27.291Z,44.20
2018-09-10T15:11:55.729Z,42.40
2018-09-10T15:14:23.889Z,47.50
2018-09-10T15:16:52.043Z,48.50
2018-09-10T15:19:20.215Z,45.80
2018-09-10T15:21:48.399Z,44.40
2018-09-10T15:24:16.619Z,44.30
2018-09-10T15:26:45.068Z,45.20
2018-09-10T15:29:13.243Z,45.60
2018-09-10T15:31:41.459Z,51.20
2018-09-10T15:34:09.633Z,47.10
2018-09-10T15:36:37.816Z,44.50
2018-09-10T15:39:07.039Z,44.80
2018-09-10T15:41:35.227Z,44.80
2018-09-10T15:44:03.454Z,46.80
2018-09-10T15:46:31.623Z,47.80
2018-09-10T15:48:59.856Z,47.40
2018-09-10T15:51:28.323Z,48.30
2018-09-10T15:53:56.502Z,49.90
2018-09-10T15:56:24.681Z,50.40
2018-09-10T15:58:52.873Z,48.30
2018-09-10T16:01:21.041Z,47.30
2018-09-10T16:03:49.223Z,45.70
2018-09-10T16:06:17.399Z,45.30
2018-09-10T16:08:45.590Z,47.00
2018-09-10T16:11:13.775Z,47.90
2018-09-10T16:13:41.962Z,51.40
2018-09-10T16:16:10.146Z,47.80
2018-09-10T16:18:38.343Z,48.50
2018-09-10T16:21:06.572Z,51.20
2018-09-10T16:23:34.751Z,50.40
2018-09-10T16:26:02.927Z,52.40
2018-09-10T16:28:31.133Z,54.70
2018-09-10T16:30:59.335Z,58.20
2018-09-10T16:33:27.531Z,55.50
2018-09-10T16:35:55.948Z,55.80
2018-09-10T16:38:24.433Z,57.80
2018-09-10T16:40:53.285Z,59.80
2018-09-10T16:43:21.435Z,61.20
2018-09-10T16:45:49.618Z,61.20
2018-09-10T16:48:18.130Z,62.70
2018-09-10T16:50:46.843Z,63.40
2018-09-10T16:53:15.026Z,63.30
2018-09-10T16:55:43.206Z,64.30
2018-09-10T16:58:11.452Z,63.80
2018-09-10T17:00:40.648Z,64.10
2018-09-10T17:03:08.810Z,65.50
2018-09-10T17:05:37.290Z,66.10
2018-09-10T17:08:05.479Z,67.00
2018-09-10T17:10:34.027Z,66.80
2018-09-10T17:13:02.147Z,66.60
2018-09-10T17:15:30.334Z,68.10
2018-09-10T17:17:58.589Z,67.50
2018-09-10T17:20:26.786Z,68.70
2018-09-10T17:22:55.092Z,69.10
2018-09-10T17:25:23.367Z,70.10
2018-09-10T17:27:51.854Z,70.10
2018-09-10T17:30:20.300Z,71.00
2018-09-10T17:32:48.442Z,71.30
2018-09-10T17:35:16.635Z,70.10
2018-09-10T17:37:44.860Z,71.60
2018-09-10T17:40:13.096Z,71.50
2018-09-10T17:42:41.289Z,71.30
2018-09-10T17:45:09.527Z,72.00
2018-09-10T17:47:37.755Z,71.80
2018-09-10T17:50:05.935Z,72.40
2018-09-10T17:52:34.166Z,72.80
2018-09-10T17:55:02.402Z,73.10
2018-09-10T17:57:30.752Z,73.50
2018-09-10T17:59:59.047Z,73.60
2018-09-10T18:02:27.251Z,73.70
2018-09-10T18:04:55.534Z,73.60
2018-09-10T18:07:23.790Z,73.40
2018-09-10T18:09:51.996Z,74.00
2018-09-10T18:12:20.215Z,74.50
2018-09-10T18:14:48.544Z,74.70
2018-09-10T18:17:16.731Z,75.10
2018-09-10T18:19:45.539Z,76.00
2018-09-10T18:22:13.870Z,76.00
2018-09-10T18:24:42.110Z,76.50
2018-09-10T18:27:10.354Z,76.60
2018-09-10T18:29:38.671Z,76.60
2018-09-10T18:32:06.930Z,77.00
2018-09-10T18:34:35.189Z,76.60
2018-09-10T18:37:03.417Z,77.80
2018-09-10T18:39:31.599Z,78.10
2018-09-10T18:41:59.838Z,78.30
2018-09-10T18:44:28.028Z,77.90
2018-09-10T18:46:56.285Z,78.40
2018-09-10T18:49:24.522Z,78.70
2018-09-10T18:51:52.722Z,78.70
2018-09-10T18:54:20.910Z,78.40
2018-09-10T18:56:49.146Z,78.20
2018-09-10T18:59:17.819Z,78.70
2018-09-10T19:01:46.258Z,78.30
2018-09-10T19:04:14.457Z,77.90
2018-09-10T19:06:42.607Z,77.60
2018-09-10T19:09:11.635Z,77.10
2018-09-10T19:11:39.870Z,77.00
2018-09-10T19:14:08.034Z,77.40
2018-09-10T19:16:36.357Z,76.80
2018-09-10T19:19:05.234Z,76.90
2018-09-10T19:21:33.559Z,77.10
2018-09-10T19:24:01.785Z,77.30
2018-09-10T19:26:30.004Z,77.40
2018-09-10T19:28:58.944Z,77.10
2018-09-10T19:31:27.280Z,77.60
2018-09-10T19:33:55.477Z,77.00
2018-09-10T19:36:23.726Z,77.00
2018-09-10T19:38:51.954Z,77.10
2018-09-10T19:41:20.158Z,76.70
2018-09-10T19:43:48.367Z,77.20
2018-09-10T19:46:16.621Z,77.00
2018-09-10T19:48:45.287Z,77.30
2018-09-10T19:51:13.534Z,77.10
2018-09-10T19:53:41.747Z,77.60
2018-09-10T19:56:10.043Z,77.60
2018-09-10T19:58:38.255Z,77.20
2018-09-10T20:01:06.479Z,78.20
2018-09-10T20:03:34.790Z,78.40
2018-09-10T20:06:03.006Z,77.50
2018-09-10T20:08:31.329Z,77.70
2018-09-10T20:10:59.562Z,77.60
2018-09-10T20:13:27.744Z,78.10
2018-09-10T20:15:55.975Z,77.70
2018-09-10T20:18:24.211Z,77.70
2018-09-10T20:20:52.438Z,77.80
2018-09-10T20:23:20.704Z,77.80
2018-09-10T20:25:49.000Z,77.70
2018-09-10T20:28:17.280Z,77.90
2018-09-10T20:30:45.631Z,77.90
2018-09-10T20:33:13.815Z,78.00
2018-09-10T20:35:42.118Z,78.30
2018-09-10T20:38:10.490Z,78.20
2018-09-10T20:40:38.683Z,78.10
2018-09-10T20:43:07.635Z,78.30
2018-09-10T20:45:35.909Z,76.90
2018-09-10T20:48:04.411Z,78.00
2018-09-10T20:50:32.598Z,78.30
2018-09-10T20:53:00.796Z,77.50
2018-09-10T20:55:28.978Z,77.00
2018-09-10T20:57:57.168Z,77.60
2018-09-10T21:00:25.365Z,77.30
2018-09-10T21:02:53.614Z,77.80
2018-09-10T21:05:21.799Z,77.40
2018-09-10T21:07:50.023Z,77.50
2018-09-10T21:10:18.291Z,77.50
2018-09-10T21:12:46.496Z,78.20
2018-09-10T21:15:15.354Z,77.70
2018-09-10T21:17:43.627Z,78.20
2018-09-10T21:20:11.806Z,78.60
2018-09-10T21:22:40.154Z,79.20
2018-09-10T21:25:08.330Z,78.70
2018-09-10T21:27:36.810Z,78.70
2018-09-10T21:30:05.739Z,79.30
2018-09-10T21:32:34.300Z,78.70
2018-09-10T21:35:02.714Z,78.70
2018-09-10T21:37:30.866Z,79.50
2018-09-10T21:39:59.030Z,80.20
2018-09-10T21:42:27.219Z,80.30
2018-09-10T21:44:55.366Z,80.50
2018-09-10T21:47:23.523Z,81.40
2018-09-10T21:49:51.972Z,81.30
2018-09-10T21:52:20.157Z,81.50
2018-09-10T21:54:48.397Z,82.00
2018-09-10T21:57:16.583Z,82.20
2018-09-10T21:59:45.458Z,82.50
2018-09-10T22:02:13.614Z,82.80
2018-09-10T22:04:41.795Z,83.10
2018-09-10T22:07:10.782Z,83.60
2018-09-10T22:09:38.942Z,83.40
2018-09-10T22:12:07.330Z,83.40
2018-09-10T22:14:35.487Z,83.60
2018-09-10T22:17:03.707Z,83.50
2018-09-10T22:19:31.855Z,83.70
2018-09-10T22:22:00.027Z,84.30
2018-09-10T22:24:28.169Z,84.10
2018-09-10T22:26:56.626Z,84.40
2018-09-10T22:29:24.816Z,84.30
2018-09-10T22:31:53.025Z,84.30
2018-09-10T22:34:21.504Z,83.70
2018-09-10T22:36:49.655Z,83.60
2018-09-10T22:39:17.815Z,83.60
2018-09-10T22:41:45.959Z,83.10
2018-09-10T22:44:14.408Z,83.30
2018-09-10T22:46:42.522Z,83.90
2018-09-10T22:49:10.678Z,83.00
2018-09-10T22:51:38.842Z,83.10
2018-09-10T22:54:07.765Z,83.40
2018-09-10T22:56:35.915Z,83.50
2018-09-10T22:59:04.375Z,83.60
2018-09-10T23:01:32.526Z,82.90
2018-09-10T23:04:00.679Z,83.20
2018-09-10T23:06:28.860Z,82.80
2018-09-10T23:08:57.059Z,82.70
2018-09-10T23:11:25.217Z,82.80
2018-09-10T23:13:53.366Z,82.40
2018-09-10T23:16:21.517Z,82.50
2018-09-10T23:18:49.678Z,82.60
2018-09-10T23:21:17.831Z,81.80
2018-09-10T23:23:45.978Z,80.80
2018-09-10T23:26:14.118Z,80.80
2018-09-10T23:28:42.274Z,80.30
2018-09-10T23:31:10.749Z,80.30
2018-09-10T23:33:38.914Z,80.80
2018-09-10T23:36:07.063Z,81.40
2018-09-10T23:38:35.214Z,80.00
2018-09-10T23:41:03.354Z,80.30
2018-09-10T23:43:31.524Z,80.60
2018-09-10T23:45:59.704Z,80.00
2018-09-10T23:48:27.859Z,79.60
2018-09-10T23:50:56.306Z,78.90
2018-09-10T23:53:24.467Z,78.60
2018-09-10T23:55:52.958Z,79.00
2018-09-10T23:58:21.439Z,79.40
